sensor_id;sensor_type;location;lat;lon;timestamp;temperature;humidity
36416;DHT22;22447;44.530;18.620;2023-02-01T00:00:45;1.30;99.90
36416;DHT22;22447;44.530;18.620;2023-02-01T00:03:11;1.10;99.90
36416;DHT22;22447;44.530;18.620;2023-02-01T00:05:38;1.00;99.90
36416;DHT22;22447;44.530;18.620;2023-02-01T00:08:04;1.00;99.90
36416;DHT22;22447;44.530;18.620;2023-02-01T00:10:30;1.00;99.90
36416;DHT22;22447;44.530;18.620;2023-02-01T00:12:56;0.90;99.90
36416;DHT22;22447;44.530;18.620;2023-02-01T00:15:22;0.80;99.90
36416;DHT22;22447;44.530;18.620;2023-02-01T00:17:53;0.90;99.90
36416;DHT22;22447;44.530;18.620;2023-02-01T00:20:20;0.80;99.90
36416;DHT22;22447;44.530;18.620;2023-02-01T00:22:45;0.90;99.90
36416;DHT22;22447;44.530;18.620;2023-02-01T00:25:11;1.00;99.90
36416;DHT22;22447;44.530;18.620;2023-02-01T00:27:37;1.10;99.90
36416;DHT22;22447;44.530;18.620;2023-02-01T00:30:03;1.00;99.90
36416;DHT22;22447;44.530;18.620;2023-02-01T00:32:30;1.00;99.90
36416;DHT22;22447;44.530;18.620;2023-02-01T00:34:57;1.10;99.90
36416;DHT22;22447;44.530;18.620;2023-02-01T00:37:23;1.10;99.90
36416;DHT22;22447;44.530;18.620;2023-02-01T00:39:49;1.20;99.90
36416;DHT22;22447;44.530;18.620;2023-02-01T00:42:15;1.20;99.90
36416;DHT22;22447;44.530;18.620;2023-02-01T00:44:41;1.20;99.90
36416;DHT22;22447;44.530;18.620;2023-02-01T00:47:07;1.20;99.90
36416;DHT22;22447;44.530;18.620;2023-02-01T00:49:33;1.10;99.90
36416;DHT22;22447;44.530;18.620;2023-02-01T00:52:00;1.10;99.90
36416;DHT22;22447;44.530;18.620;2023-02-01T00:54:26;1.10;99.90
36416;DHT22;22447;44.530;18.620;2023-02-01T00:56:52;1.00;99.90
36416;DHT22;22447;44.530;18.620;2023-02-01T00:59:18;1.00;99.90
36416;DHT22;22447;44.530;18.620;2023-02-01T01:01:44;0.90;99.90
36416;DHT22;22447;44.530;18.620;2023-02-01T01:04:10;0.90;99.90
36416;DHT22;22447;44.530;18.620;2023-02-01T01:06:36;0.90;99.90
36416;DHT22;22447;44.530;18.620;2023-02-01T01:09:05;0.90;99.90
36416;DHT22;22447;44.530;18.620;2023-02-01T01:11:34;0.90;99.90
36416;DHT22;22447;44.530;18.620;2023-02-01T01:14:01;0.80;99.90
36416;DHT22;22447;44.530;18.620;2023-02-01T01:16:28;0.80;99.90
36416;DHT22;22447;44.530;18.620;2023-02-01T01:18:55;1.00;99.90
36416;DHT22;22447;44.530;18.620;2023-02-01T01:21:21;1.00;99.90
36416;DHT22;22447;44.530;18.620;2023-02-01T01:23:47;1.10;99.90
36416;DHT22;22447;44.530;18.620;2023-02-01T01:26:16;1.20;99.90
36416;DHT22;22447;44.530;18.620;2023-02-01T01:28:42;1.20;99.90
36416;DHT22;22447;44.530;18.620;2023-02-01T01:31:10;1.20;99.90
36416;DHT22;22447;44.530;18.620;2023-02-01T01:33:36;1.10;99.90
36416;DHT22;22447;44.530;18.620;2023-02-01T01:36:05;1.00;99.90
36416;DHT22;22447;44.530;18.620;2023-02-01T01:38:32;1.00;99.90
36416;DHT22;22447;44.530;18.620;2023-02-01T01:40:58;1.00;99.90
36416;DHT22;22447;44.530;18.620;2023-02-01T01:43:24;0.90;99.90
36416;DHT22;22447;44.530;18.620;2023-02-01T01:45:53;0.80;99.90
36416;DHT22;22447;44.530;18.620;2023-02-01T01:48:29;0.80;99.90
36416;DHT22;22447;44.530;18.620;2023-02-01T01:51:06;0.80;99.90
36416;DHT22;22447;44.530;18.620;2023-02-01T01:53:43;0.90;99.90
36416;DHT22;22447;44.530;18.620;2023-02-01T01:56:11;0.80;99.90
36416;DHT22;22447;44.530;18.620;2023-02-01T01:58:38;0.80;99.90
36416;DHT22;22447;44.530;18.620;2023-02-01T02:01:04;0.80;99.90
36416;DHT22;22447;44.530;18.620;2023-02-01T02:03:31;0.90;99.90
36416;DHT22;22447;44.530;18.620;2023-02-01T02:06:01;0.90;99.90
36416;DHT22;22447;44.530;18.620;2023-02-01T02:08:28;1.00;99.90
36416;DHT22;22447;44.530;18.620;2023-02-01T02:10:55;1.00;99.90
36416;DHT22;22447;44.530;18.620;2023-02-01T02:13:36;1.10;99.90
36416;DHT22;22447;44.530;18.620;2023-02-01T02:41:26;1.30;99.90
36416;DHT22;22447;44.530;18.620;2023-02-01T02:44:43;1.30;99.90
36416;DHT22;22447;44.530;18.620;2023-02-01T02:47:29;1.30;99.90
36416;DHT22;22447;44.530;18.620;2023-02-01T02:52:57;1.40;99.90
36416;DHT22;22447;44.530;18.620;2023-02-01T02:55:45;1.40;99.90
36416;DHT22;22447;44.530;18.620;2023-02-01T02:58:12;1.50;99.90
36416;DHT22;22447;44.530;18.620;2023-02-01T03:00:58;1.40;99.90
36416;DHT22;22447;44.530;18.620;2023-02-01T03:03:43;1.40;99.90
36416;DHT22;22447;44.530;18.620;2023-02-01T03:06:28;1.20;99.90
36416;DHT22;22447;44.530;18.620;2023-02-01T03:08:59;1.10;99.90
36416;DHT22;22447;44.530;18.620;2023-02-01T03:11:28;1.10;99.90
36416;DHT22;22447;44.530;18.620;2023-02-01T03:14:15;1.10;99.90
36416;DHT22;22447;44.530;18.620;2023-02-01T03:16:49;1.10;99.90
36416;DHT22;22447;44.530;18.620;2023-02-01T03:19:31;1.00;99.90
36416;DHT22;22447;44.530;18.620;2023-02-01T03:22:07;0.90;99.90
36416;DHT22;22447;44.530;18.620;2023-02-01T03:24:45;0.80;99.90
36416;DHT22;22447;44.530;18.620;2023-02-01T03:27:20;0.90;99.90
36416;DHT22;22447;44.530;18.620;2023-02-01T03:29:59;0.90;99.90
36416;DHT22;22447;44.530;18.620;2023-02-01T03:32:28;0.80;99.90
36416;DHT22;22447;44.530;18.620;2023-02-01T03:34:54;0.90;99.90
36416;DHT22;22447;44.530;18.620;2023-02-01T03:37:26;1.00;99.90
36416;DHT22;22447;44.530;18.620;2023-02-01T03:40:00;1.10;99.90
36416;DHT22;22447;44.530;18.620;2023-02-01T03:42:40;1.00;99.90
36416;DHT22;22447;44.530;18.620;2023-02-01T03:45:13;1.10;99.90
36416;DHT22;22447;44.530;18.620;2023-02-01T03:47:46;1.10;99.90
36416;DHT22;22447;44.530;18.620;2023-02-01T03:50:21;1.10;99.90
36416;DHT22;22447;44.530;18.620;2023-02-01T03:52:59;1.00;99.90
36416;DHT22;22447;44.530;18.620;2023-02-01T03:55:28;1.00;99.90
36416;DHT22;22447;44.530;18.620;2023-02-01T04:01:01;1.00;99.90
36416;DHT22;22447;44.530;18.620;2023-02-01T04:03:30;0.80;99.90
36416;DHT22;22447;44.530;18.620;2023-02-01T04:05:56;0.80;99.90
36416;DHT22;22447;44.530;18.620;2023-02-01T04:08:25;0.90;99.90
36416;DHT22;22447;44.530;18.620;2023-02-01T04:10:51;0.90;99.90
36416;DHT22;22447;44.530;18.620;2023-02-01T04:13:17;0.90;99.90
36416;DHT22;22447;44.530;18.620;2023-02-01T04:15:43;1.00;99.90
36416;DHT22;22447;44.530;18.620;2023-02-01T04:18:11;1.00;99.90
36416;DHT22;22447;44.530;18.620;2023-02-01T04:20:37;0.90;99.90
36416;DHT22;22447;44.530;18.620;2023-02-01T04:23:03;1.00;99.90
36416;DHT22;22447;44.530;18.620;2023-02-01T04:25:29;1.00;99.90
36416;DHT22;22447;44.530;18.620;2023-02-01T04:27:55;1.10;99.90
36416;DHT22;22447;44.530;18.620;2023-02-01T04:30:21;1.10;99.90
36416;DHT22;22447;44.530;18.620;2023-02-01T04:32:48;1.20;99.90
36416;DHT22;22447;44.530;18.620;2023-02-01T04:35:14;1.20;99.90
36416;DHT22;22447;44.530;18.620;2023-02-01T04:37:40;1.10;99.90
36416;DHT22;22447;44.530;18.620;2023-02-01T04:40:07;1.20;99.90
36416;DHT22;22447;44.530;18.620;2023-02-01T04:42:33;1.30;99.90
36416;DHT22;22447;44.530;18.620;2023-02-01T04:44:59;1.10;99.90
36416;DHT22;22447;44.530;18.620;2023-02-01T04:47:25;1.20;99.90
36416;DHT22;22447;44.530;18.620;2023-02-01T04:49:51;1.20;99.90
36416;DHT22;22447;44.530;18.620;2023-02-01T04:52:17;1.20;99.90
36416;DHT22;22447;44.530;18.620;2023-02-01T04:54:43;1.10;99.90
36416;DHT22;22447;44.530;18.620;2023-02-01T04:57:09;1.10;99.90
36416;DHT22;22447;44.530;18.620;2023-02-01T04:59:36;1.20;99.90
36416;DHT22;22447;44.530;18.620;2023-02-01T05:02:02;1.20;99.90
36416;DHT22;22447;44.530;18.620;2023-02-01T05:04:28;1.20;99.90
36416;DHT22;22447;44.530;18.620;2023-02-01T05:06:54;1.00;99.90
36416;DHT22;22447;44.530;18.620;2023-02-01T05:09:20;1.00;99.90
36416;DHT22;22447;44.530;18.620;2023-02-01T05:11:47;1.10;99.90
36416;DHT22;22447;44.530;18.620;2023-02-01T05:14:31;1.20;99.90
36416;DHT22;22447;44.530;18.620;2023-02-01T05:16:57;1.20;99.90
36416;DHT22;22447;44.530;18.620;2023-02-01T05:19:23;1.00;99.90
36416;DHT22;22447;44.530;18.620;2023-02-01T05:21:49;0.90;99.90
36416;DHT22;22447;44.530;18.620;2023-02-01T05:24:15;0.90;99.90
36416;DHT22;22447;44.530;18.620;2023-02-01T05:26:48;0.80;99.90
36416;DHT22;22447;44.530;18.620;2023-02-01T05:29:15;0.80;99.90
36416;DHT22;22447;44.530;18.620;2023-02-01T05:31:41;0.90;99.90
36416;DHT22;22447;44.530;18.620;2023-02-01T05:34:08;0.90;99.90
36416;DHT22;22447;44.530;18.620;2023-02-01T05:36:34;0.90;99.90
36416;DHT22;22447;44.530;18.620;2023-02-01T05:39:00;0.80;99.90
36416;DHT22;22447;44.530;18.620;2023-02-01T05:41:26;0.80;99.90
36416;DHT22;22447;44.530;18.620;2023-02-01T05:43:52;0.90;99.90
36416;DHT22;22447;44.530;18.620;2023-02-01T05:46:18;1.00;99.90
36416;DHT22;22447;44.530;18.620;2023-02-01T05:48:44;1.00;99.90
36416;DHT22;22447;44.530;18.620;2023-02-01T05:51:10;0.90;99.90
36416;DHT22;22447;44.530;18.620;2023-02-01T05:53:36;0.90;99.90
36416;DHT22;22447;44.530;18.620;2023-02-01T05:56:02;0.90;99.90
36416;DHT22;22447;44.530;18.620;2023-02-01T05:58:29;0.80;99.90
36416;DHT22;22447;44.530;18.620;2023-02-01T06:00:55;0.80;99.90
36416;DHT22;22447;44.530;18.620;2023-02-01T06:03:21;0.90;99.90
36416;DHT22;22447;44.530;18.620;2023-02-01T06:05:47;1.00;99.90
36416;DHT22;22447;44.530;18.620;2023-02-01T06:08:14;1.10;99.90
36416;DHT22;22447;44.530;18.620;2023-02-01T06:10:40;1.00;99.90
36416;DHT22;22447;44.530;18.620;2023-02-01T06:13:06;0.80;99.90
36416;DHT22;22447;44.530;18.620;2023-02-01T06:15:33;0.70;99.90
36416;DHT22;22447;44.530;18.620;2023-02-01T06:17:59;0.70;99.90
36416;DHT22;22447;44.530;18.620;2023-02-01T06:20:25;0.70;99.90
36416;DHT22;22447;44.530;18.620;2023-02-01T06:22:50;0.70;99.90
36416;DHT22;22447;44.530;18.620;2023-02-01T06:25:18;0.70;99.90
36416;DHT22;22447;44.530;18.620;2023-02-01T06:27:45;0.50;99.90
36416;DHT22;22447;44.530;18.620;2023-02-01T06:30:11;0.50;99.90
36416;DHT22;22447;44.530;18.620;2023-02-01T06:32:41;0.60;99.90
36416;DHT22;22447;44.530;18.620;2023-02-01T06:35:08;0.50;99.90
36416;DHT22;22447;44.530;18.620;2023-02-01T06:37:40;0.30;99.90
36416;DHT22;22447;44.530;18.620;2023-02-01T06:40:07;0.30;99.90
36416;DHT22;22447;44.530;18.620;2023-02-01T06:42:34;0.40;99.90
36416;DHT22;22447;44.530;18.620;2023-02-01T06:45:00;0.50;99.90
36416;DHT22;22447;44.530;18.620;2023-02-01T06:47:26;0.60;99.90
36416;DHT22;22447;44.530;18.620;2023-02-01T06:49:52;0.70;99.90
36416;DHT22;22447;44.530;18.620;2023-02-01T06:52:18;0.80;99.90
36416;DHT22;22447;44.530;18.620;2023-02-01T06:54:44;1.00;99.90
36416;DHT22;22447;44.530;18.620;2023-02-01T06:57:09;1.10;99.90
36416;DHT22;22447;44.530;18.620;2023-02-01T06:59:35;1.30;99.90
36416;DHT22;22447;44.530;18.620;2023-02-01T07:02:01;1.50;99.90
36416;DHT22;22447;44.530;18.620;2023-02-01T07:04:28;1.50;99.90
36416;DHT22;22447;44.530;18.620;2023-02-01T07:06:53;1.30;99.90
36416;DHT22;22447;44.530;18.620;2023-02-01T07:09:19;1.40;99.90
36416;DHT22;22447;44.530;18.620;2023-02-01T07:11:45;1.40;99.90
36416;DHT22;22447;44.530;18.620;2023-02-01T07:14:11;1.40;99.90
36416;DHT22;22447;44.530;18.620;2023-02-01T07:16:38;1.50;99.90
36416;DHT22;22447;44.530;18.620;2023-02-01T07:19:04;1.40;99.90
36416;DHT22;22447;44.530;18.620;2023-02-01T07:21:31;1.40;99.90
36416;DHT22;22447;44.530;18.620;2023-02-01T07:23:58;1.40;99.90
36416;DHT22;22447;44.530;18.620;2023-02-01T07:26:24;1.30;99.90
36416;DHT22;22447;44.530;18.620;2023-02-01T07:28:50;2.10;99.90
36416;DHT22;22447;44.530;18.620;2023-02-01T07:31:18;3.70;99.90
36416;DHT22;22447;44.530;18.620;2023-02-01T07:33:48;5.40;99.90
36416;DHT22;22447;44.530;18.620;2023-02-01T07:36:17;6.90;99.90
36416;DHT22;22447;44.530;18.620;2023-02-01T07:38:44;7.70;99.90
36416;DHT22;22447;44.530;18.620;2023-02-01T07:41:10;8.70;99.50
36416;DHT22;22447;44.530;18.620;2023-02-01T07:43:36;8.90;93.30
36416;DHT22;22447;44.530;18.620;2023-02-01T07:46:04;8.50;91.20
36416;DHT22;22447;44.530;18.620;2023-02-01T07:48:30;7.80;92.60
36416;DHT22;22447;44.530;18.620;2023-02-01T07:51:05;7.50;94.20
36416;DHT22;22447;44.530;18.620;2023-02-01T07:53:33;7.00;99.90
36416;DHT22;22447;44.530;18.620;2023-02-01T07:55:59;7.60;99.50
36416;DHT22;22447;44.530;18.620;2023-02-01T07:58:26;8.50;98.50
36416;DHT22;22447;44.530;18.620;2023-02-01T08:00:53;9.30;90.40
36416;DHT22;22447;44.530;18.620;2023-02-01T08:03:37;9.10;91.10
36416;DHT22;22447;44.530;18.620;2023-02-01T08:06:04;9.40;87.60
36416;DHT22;22447;44.530;18.620;2023-02-01T08:08:30;10.30;88.40
36416;DHT22;22447;44.530;18.620;2023-02-01T08:11:05;10.90;81.80
36416;DHT22;22447;44.530;18.620;2023-02-01T08:13:31;11.30;76.50
36416;DHT22;22447;44.530;18.620;2023-02-01T08:16:02;10.60;71.10
36416;DHT22;22447;44.530;18.620;2023-02-01T08:18:28;10.60;73.80
36416;DHT22;22447;44.530;18.620;2023-02-01T08:20:54;11.30;69.60
36416;DHT22;22447;44.530;18.620;2023-02-01T08:23:21;11.40;69.40
36416;DHT22;22447;44.530;18.620;2023-02-01T08:25:47;11.40;67.70
36416;DHT22;22447;44.530;18.620;2023-02-01T08:28:14;11.00;69.70
36416;DHT22;22447;44.530;18.620;2023-02-01T08:30:40;10.60;69.70
36416;DHT22;22447;44.530;18.620;2023-02-01T08:33:08;11.30;71.90
36416;DHT22;22447;44.530;18.620;2023-02-01T08:35:35;11.00;69.60
36416;DHT22;22447;44.530;18.620;2023-02-01T08:38:01;10.90;71.10
36416;DHT22;22447;44.530;18.620;2023-02-01T08:40:27;11.30;68.70
36416;DHT22;22447;44.530;18.620;2023-02-01T08:42:54;11.90;65.00
36416;DHT22;22447;44.530;18.620;2023-02-01T08:45:25;12.40;65.10
36416;DHT22;22447;44.530;18.620;2023-02-01T08:47:54;12.70;61.80
36416;DHT22;22447;44.530;18.620;2023-02-01T08:50:22;13.00;61.70
36416;DHT22;22447;44.530;18.620;2023-02-01T08:52:48;13.60;58.90
36416;DHT22;22447;44.530;18.620;2023-02-01T08:55:15;14.00;58.10
36416;DHT22;22447;44.530;18.620;2023-02-01T08:57:41;13.70;58.70
36416;DHT22;22447;44.530;18.620;2023-02-01T09:00:12;13.00;58.40
36416;DHT22;22447;44.530;18.620;2023-02-01T09:02:38;13.10;57.00
36416;DHT22;22447;44.530;18.620;2023-02-01T09:05:05;13.10;60.30
36416;DHT22;22447;44.530;18.620;2023-02-01T09:07:32;13.70;57.40
36416;DHT22;22447;44.530;18.620;2023-02-01T09:09:59;14.70;55.60
36416;DHT22;22447;44.530;18.620;2023-02-01T09:12:31;13.90;56.10
36416;DHT22;22447;44.530;18.620;2023-02-01T09:14:58;15.00;54.60
36416;DHT22;22447;44.530;18.620;2023-02-01T09:17:29;15.50;51.40
36416;DHT22;22447;44.530;18.620;2023-02-01T09:19:55;15.10;52.20
36416;DHT22;22447;44.530;18.620;2023-02-01T09:22:21;15.10;50.40
36416;DHT22;22447;44.530;18.620;2023-02-01T09:24:47;13.70;51.40
36416;DHT22;22447;44.530;18.620;2023-02-01T09:27:13;13.40;54.60
36416;DHT22;22447;44.530;18.620;2023-02-01T09:29:39;14.00;53.60
36416;DHT22;22447;44.530;18.620;2023-02-01T09:32:05;14.50;52.00
36416;DHT22;22447;44.530;18.620;2023-02-01T09:34:33;14.70;51.80
36416;DHT22;22447;44.530;18.620;2023-02-01T09:36:59;14.50;50.80
36416;DHT22;22447;44.530;18.620;2023-02-01T09:39:25;14.20;53.00
36416;DHT22;22447;44.530;18.620;2023-02-01T09:42:10;15.40;51.20
36416;DHT22;22447;44.530;18.620;2023-02-01T09:47:23;15.20;51.40
36416;DHT22;22447;44.530;18.620;2023-02-01T09:50:32;15.60;51.10
36416;DHT22;22447;44.530;18.620;2023-02-01T09:53:04;15.10;51.10
36416;DHT22;22447;44.530;18.620;2023-02-01T09:55:51;15.40;50.90
36416;DHT22;22447;44.530;18.620;2023-02-01T09:58:35;15.50;50.30
36416;DHT22;22447;44.530;18.620;2023-02-01T10:01:08;15.70;48.10
36416;DHT22;22447;44.530;18.620;2023-02-01T10:03:36;16.50;47.60
36416;DHT22;22447;44.530;18.620;2023-02-01T10:09:37;16.90;43.10
36416;DHT22;22447;44.530;18.620;2023-02-01T10:12:24;15.80;45.80
36416;DHT22;22447;44.530;18.620;2023-02-01T10:26:37;13.70;49.20
36416;DHT22;22447;44.530;18.620;2023-02-01T10:29:18;13.90;47.90
36416;DHT22;22447;44.530;18.620;2023-02-01T10:31:45;14.10;47.60
36416;DHT22;22447;44.530;18.620;2023-02-01T10:34:19;14.30;48.30
36416;DHT22;22447;44.530;18.620;2023-02-01T10:36:56;14.60;47.80
36416;DHT22;22447;44.530;18.620;2023-02-01T10:39:24;15.00;46.20
36416;DHT22;22447;44.530;18.620;2023-02-01T10:41:51;15.30;45.00
36416;DHT22;22447;44.530;18.620;2023-02-01T10:44:21;14.80;46.70
36416;DHT22;22447;44.530;18.620;2023-02-01T10:46:49;14.90;45.60
36416;DHT22;22447;44.530;18.620;2023-02-01T10:49:37;15.30;44.20
36416;DHT22;22447;44.530;18.620;2023-02-01T10:52:46;14.70;44.30
36416;DHT22;22447;44.530;18.620;2023-02-01T10:54:53;14.80;44.70
36416;DHT22;22447;44.530;18.620;2023-02-01T10:57:26;15.50;43.40
36416;DHT22;22447;44.530;18.620;2023-02-01T10:59:55;15.00;44.00
36416;DHT22;22447;44.530;18.620;2023-02-01T11:02:34;14.40;46.00
36416;DHT22;22447;44.530;18.620;2023-02-01T11:05:07;14.50;46.80
36416;DHT22;22447;44.530;18.620;2023-02-01T11:07:36;14.20;46.70
36416;DHT22;22447;44.530;18.620;2023-02-01T11:10:03;14.40;45.40
36416;DHT22;22447;44.530;18.620;2023-02-01T11:12:31;14.10;45.10
36416;DHT22;22447;44.530;18.620;2023-02-01T11:15:19;14.40;46.30
36416;DHT22;22447;44.530;18.620;2023-02-01T11:17:48;14.50;44.50
36416;DHT22;22447;44.530;18.620;2023-02-01T11:20:36;14.30;44.70
36416;DHT22;22447;44.530;18.620;2023-02-01T11:23:04;14.20;45.00
36416;DHT22;22447;44.530;18.620;2023-02-01T11:25:32;14.20;44.30
36416;DHT22;22447;44.530;18.620;2023-02-01T11:28:01;13.90;46.00
36416;DHT22;22447;44.530;18.620;2023-02-01T11:30:36;13.80;47.40
36416;DHT22;22447;44.530;18.620;2023-02-01T11:33:16;13.70;46.00
36416;DHT22;22447;44.530;18.620;2023-02-01T11:35:43;13.30;46.90
36416;DHT22;22447;44.530;18.620;2023-02-01T11:38:36;12.80;49.20
36416;DHT22;22447;44.530;18.620;2023-02-01T11:41:22;12.70;49.90
36416;DHT22;22447;44.530;18.620;2023-02-01T11:43:57;13.10;48.20
36416;DHT22;22447;44.530;18.620;2023-02-01T11:46:31;13.40;47.60
36416;DHT22;22447;44.530;18.620;2023-02-01T11:49:26;13.30;47.50
36416;DHT22;22447;44.530;18.620;2023-02-01T12:04:12;12.80;47.00
36416;DHT22;22447;44.530;18.620;2023-02-01T12:06:52;12.60;48.20
36416;DHT22;22447;44.530;18.620;2023-02-01T12:15:04;12.80;47.70
36416;DHT22;22447;44.530;18.620;2023-02-01T12:26:38;12.50;48.10
36416;DHT22;22447;44.530;18.620;2023-02-01T12:34:45;11.60;49.30
36416;DHT22;22447;44.530;18.620;2023-02-01T12:43:28;12.00;48.80
36416;DHT22;22447;44.530;18.620;2023-02-01T12:46:09;11.60;49.80
36416;DHT22;22447;44.530;18.620;2023-02-01T12:48:50;11.40;50.90
36416;DHT22;22447;44.530;18.620;2023-02-01T12:51:23;11.50;50.10
36416;DHT22;22447;44.530;18.620;2023-02-01T12:53:55;11.40;51.00
36416;DHT22;22447;44.530;18.620;2023-02-01T12:59:11;11.30;53.60
36416;DHT22;22447;44.530;18.620;2023-02-01T13:02:14;11.30;52.90
36416;DHT22;22447;44.530;18.620;2023-02-01T13:04:53;11.40;52.70
36416;DHT22;22447;44.530;18.620;2023-02-01T13:07:33;11.20;54.40
36416;DHT22;22447;44.530;18.620;2023-02-01T13:13:42;11.00;52.50
36416;DHT22;22447;44.530;18.620;2023-02-01T13:16:05;10.90;53.30
36416;DHT22;22447;44.530;18.620;2023-02-01T13:18:36;10.70;55.00
36416;DHT22;22447;44.530;18.620;2023-02-01T13:21:15;10.90;54.80
36416;DHT22;22447;44.530;18.620;2023-02-01T13:23:46;10.80;55.90
36416;DHT22;22447;44.530;18.620;2023-02-01T13:26:12;10.80;56.70
36416;DHT22;22447;44.530;18.620;2023-02-01T13:42:45;10.30;59.40
36416;DHT22;22447;44.530;18.620;2023-02-01T13:45:24;10.40;61.70
36416;DHT22;22447;44.530;18.620;2023-02-01T13:47:54;10.30;62.00
36416;DHT22;22447;44.530;18.620;2023-02-01T13:50:30;10.30;61.90
36416;DHT22;22447;44.530;18.620;2023-02-01T13:55:56;10.30;62.50
36416;DHT22;22447;44.530;18.620;2023-02-01T14:04:00;10.30;62.00
36416;DHT22;22447;44.530;18.620;2023-02-01T14:11:57;10.20;61.80
36416;DHT22;22447;44.530;18.620;2023-02-01T14:19:28;10.10;70.40
36416;DHT22;22447;44.530;18.620;2023-02-01T14:21:58;9.90;77.40
36416;DHT22;22447;44.530;18.620;2023-02-01T14:24:29;10.00;81.90
36416;DHT22;22447;44.530;18.620;2023-02-01T14:27:01;9.90;80.80
36416;DHT22;22447;44.530;18.620;2023-02-01T14:29:40;9.80;83.20
36416;DHT22;22447;44.530;18.620;2023-02-01T14:32:17;9.70;87.00
36416;DHT22;22447;44.530;18.620;2023-02-01T14:42:44;9.50;88.60
36416;DHT22;22447;44.530;18.620;2023-02-01T14:47:43;9.30;94.60
36416;DHT22;22447;44.530;18.620;2023-02-01T14:52:39;9.10;98.10
36416;DHT22;22447;44.530;18.620;2023-02-01T14:58:05;9.00;97.90
36416;DHT22;22447;44.530;18.620;2023-02-01T15:00:32;8.80;96.80
36416;DHT22;22447;44.530;18.620;2023-02-01T15:03:40;8.80;96.80
36416;DHT22;22447;44.530;18.620;2023-02-01T15:06:33;8.70;98.20
36416;DHT22;22447;44.530;18.620;2023-02-01T15:09:07;8.60;99.70
36416;DHT22;22447;44.530;18.620;2023-02-01T15:14:42;8.20;99.90
36416;DHT22;22447;44.530;18.620;2023-02-01T15:17:26;8.10;99.90
36416;DHT22;22447;44.530;18.620;2023-02-01T15:20:24;8.00;99.90
36416;DHT22;22447;44.530;18.620;2023-02-01T15:23:00;7.90;99.90
36416;DHT22;22447;44.530;18.620;2023-02-01T15:25:29;7.90;99.90
36416;DHT22;22447;44.530;18.620;2023-02-01T15:27:56;7.80;99.90
36416;DHT22;22447;44.530;18.620;2023-02-01T15:30:31;7.80;99.90
36416;DHT22;22447;44.530;18.620;2023-02-01T15:33:15;7.60;99.90
36416;DHT22;22447;44.530;18.620;2023-02-01T15:35:46;7.70;99.90
36416;DHT22;22447;44.530;18.620;2023-02-01T15:41:07;7.40;99.90
36416;DHT22;22447;44.530;18.620;2023-02-01T15:44:01;7.40;99.90
36416;DHT22;22447;44.530;18.620;2023-02-01T15:46:36;7.40;99.90
36416;DHT22;22447;44.530;18.620;2023-02-01T15:49:03;7.10;99.90
36416;DHT22;22447;44.530;18.620;2023-02-01T15:51:31;7.00;99.90
36416;DHT22;22447;44.530;18.620;2023-02-01T15:54:07;7.00;99.90
36416;DHT22;22447;44.530;18.620;2023-02-01T15:56:39;6.90;99.90
36416;DHT22;22447;44.530;18.620;2023-02-01T15:59:16;6.70;99.90
36416;DHT22;22447;44.530;18.620;2023-02-01T16:01:43;6.60;99.90
36416;DHT22;22447;44.530;18.620;2023-02-01T16:04:21;6.30;99.90
36416;DHT22;22447;44.530;18.620;2023-02-01T16:06:53;6.30;99.90
36416;DHT22;22447;44.530;18.620;2023-02-01T16:09:24;6.10;99.90
36416;DHT22;22447;44.530;18.620;2023-02-01T16:11:57;6.00;99.90
36416;DHT22;22447;44.530;18.620;2023-02-01T16:14:24;5.90;99.90
36416;DHT22;22447;44.530;18.620;2023-02-01T16:16:51;5.80;99.90
36416;DHT22;22447;44.530;18.620;2023-02-01T16:19:18;5.80;99.90
36416;DHT22;22447;44.530;18.620;2023-02-01T16:21:44;5.70;99.90
36416;DHT22;22447;44.530;18.620;2023-02-01T16:24:11;5.60;99.90
36416;DHT22;22447;44.530;18.620;2023-02-01T16:26:37;5.60;99.90
36416;DHT22;22447;44.530;18.620;2023-02-01T16:29:04;5.60;99.90
36416;DHT22;22447;44.530;18.620;2023-02-01T16:31:37;5.50;99.90
36416;DHT22;22447;44.530;18.620;2023-02-01T16:34:04;5.60;99.90
36416;DHT22;22447;44.530;18.620;2023-02-01T16:36:33;5.60;99.90
36416;DHT22;22447;44.530;18.620;2023-02-01T16:38:59;5.50;99.90
36416;DHT22;22447;44.530;18.620;2023-02-01T16:41:26;5.40;99.90
36416;DHT22;22447;44.530;18.620;2023-02-01T16:43:54;5.30;99.90
36416;DHT22;22447;44.530;18.620;2023-02-01T16:46:23;5.30;99.90
36416;DHT22;22447;44.530;18.620;2023-02-01T16:49:00;5.20;99.90
36416;DHT22;22447;44.530;18.620;2023-02-01T16:51:29;5.10;99.90
36416;DHT22;22447;44.530;18.620;2023-02-01T16:53:58;5.10;99.90
36416;DHT22;22447;44.530;18.620;2023-02-01T16:56:32;5.00;99.90
36416;DHT22;22447;44.530;18.620;2023-02-01T16:58:58;4.90;99.90
36416;DHT22;22447;44.530;18.620;2023-02-01T17:01:26;4.90;99.90
36416;DHT22;22447;44.530;18.620;2023-02-01T17:03:53;4.90;99.90
36416;DHT22;22447;44.530;18.620;2023-02-01T17:06:23;4.90;99.90
36416;DHT22;22447;44.530;18.620;2023-02-01T17:08:57;4.90;99.90
36416;DHT22;22447;44.530;18.620;2023-02-01T17:11:23;5.00;99.90
36416;DHT22;22447;44.530;18.620;2023-02-01T17:13:50;5.00;99.90
36416;DHT22;22447;44.530;18.620;2023-02-01T17:18:42;5.00;99.90
36416;DHT22;22447;44.530;18.620;2023-02-01T17:21:09;4.80;99.90
36416;DHT22;22447;44.530;18.620;2023-02-01T17:23:36;4.60;99.90
36416;DHT22;22447;44.530;18.620;2023-02-01T17:26:02;4.60;99.90
36416;DHT22;22447;44.530;18.620;2023-02-01T17:28:28;4.60;99.90
36416;DHT22;22447;44.530;18.620;2023-02-01T17:30:54;4.50;99.90
36416;DHT22;22447;44.530;18.620;2023-02-01T17:33:38;4.40;99.90
36416;DHT22;22447;44.530;18.620;2023-02-01T17:36:05;4.30;99.90
36416;DHT22;22447;44.530;18.620;2023-02-01T17:38:32;4.30;99.90
36416;DHT22;22447;44.530;18.620;2023-02-01T17:40:59;4.10;99.90
36416;DHT22;22447;44.530;18.620;2023-02-01T17:43:25;4.00;99.90
36416;DHT22;22447;44.530;18.620;2023-02-01T17:45:58;4.10;99.90
36416;DHT22;22447;44.530;18.620;2023-02-01T17:48:26;4.10;99.90
36416;DHT22;22447;44.530;18.620;2023-02-01T17:50:52;4.10;99.90
36416;DHT22;22447;44.530;18.620;2023-02-01T17:53:28;3.90;99.90
36416;DHT22;22447;44.530;18.620;2023-02-01T17:55:54;3.90;99.90
36416;DHT22;22447;44.530;18.620;2023-02-01T17:58:22;3.80;99.90
36416;DHT22;22447;44.530;18.620;2023-02-01T18:00:49;3.80;99.90
36416;DHT22;22447;44.530;18.620;2023-02-01T18:03:27;3.70;99.90
36416;DHT22;22447;44.530;18.620;2023-02-01T18:05:56;3.60;99.90
36416;DHT22;22447;44.530;18.620;2023-02-01T18:08:25;3.50;99.90
36416;DHT22;22447;44.530;18.620;2023-02-01T18:10:58;3.50;99.90
36416;DHT22;22447;44.530;18.620;2023-02-01T18:13:28;3.40;99.90
36416;DHT22;22447;44.530;18.620;2023-02-01T18:15:54;3.40;99.90
36416;DHT22;22447;44.530;18.620;2023-02-01T18:18:21;3.30;99.90